sensor_id;sensor_type;location;lat;lon;timestamp;P1;durP1;ratioP1;P2;durP2;ratioP2
52948;SDS011;38812;50.942;3.644;2023-07-22T00:01:53;14.40;;;8.93;;
52948;SDS011;38812;50.942;3.644;2023-07-22T00:04:19;14.45;;;7.63;;
52948;SDS011;38812;50.942;3.644;2023-07-22T00:06:44;15.25;;;8.60;;
52948;SDS011;38812;50.942;3.644;2023-07-22T00:09:09;16.10;;;8.60;;
52948;SDS011;38812;50.942;3.644;2023-07-22T00:11:35;16.35;;;8.02;;
52948;SDS011;38812;50.942;3.644;2023-07-22T00:14:01;12.35;;;7.97;;
52948;SDS011;38812;50.942;3.644;2023-07-22T00:16:26;16.23;;;8.30;;
52948;SDS011;38812;50.942;3.644;2023-07-22T00:18:51;17.17;;;8.95;;
52948;SDS011;38812;50.942;3.644;2023-07-22T00:21:18;16.42;;;8.57;;
52948;SDS011;38812;50.942;3.644;2023-07-22T00:23:44;19.02;;;7.35;;
52948;SDS011;38812;50.942;3.644;2023-07-22T00:26:11;12.02;;;7.93;;
52948;SDS011;38812;50.942;3.644;2023-07-22T00:28:36;16.50;;;9.15;;
52948;SDS011;38812;50.942;3.644;2023-07-22T00:31:02;17.48;;;7.82;;
52948;SDS011;38812;50.942;3.644;2023-07-22T00:33:28;15.27;;;8.40;;
52948;SDS011;38812;50.942;3.644;2023-07-22T00:35:53;18.55;;;7.90;;
52948;SDS011;38812;50.942;3.644;2023-07-22T00:38:19;19.50;;;7.75;;
52948;SDS011;38812;50.942;3.644;2023-07-22T00:40:44;15.98;;;8.05;;
52948;SDS011;38812;50.942;3.644;2023-07-22T00:43:10;15.15;;;8.30;;
52948;SDS011;38812;50.942;3.644;2023-07-22T00:45:36;13.88;;;7.93;;
52948;SDS011;38812;50.942;3.644;2023-07-22T00:48:01;18.48;;;8.60;;
52948;SDS011;38812;50.942;3.644;2023-07-22T00:50:30;17.92;;;8.35;;
52948;SDS011;38812;50.942;3.644;2023-07-22T00:52:56;20.08;;;7.68;;
52948;SDS011;38812;50.942;3.644;2023-07-22T00:55:22;16.50;;;9.35;;
52948;SDS011;38812;50.942;3.644;2023-07-22T00:57:48;15.63;;;9.15;;
52948;SDS011;38812;50.942;3.644;2023-07-22T01:00:13;13.77;;;8.75;;
52948;SDS011;38812;50.942;3.644;2023-07-22T01:02:41;13.52;;;9.50;;
52948;SDS011;38812;50.942;3.644;2023-07-22T01:05:06;18.05;;;9.20;;
52948;SDS011;38812;50.942;3.644;2023-07-22T01:07:34;19.67;;;10.00;;
52948;SDS011;38812;50.942;3.644;2023-07-22T01:10:00;21.52;;;10.80;;
52948;SDS011;38812;50.942;3.644;2023-07-22T01:12:25;14.80;;;8.82;;
52948;SDS011;38812;50.942;3.644;2023-07-22T01:14:50;16.00;;;10.15;;
52948;SDS011;38812;50.942;3.644;2023-07-22T01:17:17;20.48;;;9.15;;
52948;SDS011;38812;50.942;3.644;2023-07-22T01:19:44;16.25;;;9.07;;
52948;SDS011;38812;50.942;3.644;2023-07-22T01:22:09;14.45;;;8.90;;
52948;SDS011;38812;50.942;3.644;2023-07-22T01:24:38;21.48;;;8.25;;
52948;SDS011;38812;50.942;3.644;2023-07-22T01:27:05;19.33;;;8.88;;
52948;SDS011;38812;50.942;3.644;2023-07-22T01:29:33;14.50;;;8.60;;
52948;SDS011;38812;50.942;3.644;2023-07-22T01:31:59;16.25;;;8.88;;
52948;SDS011;38812;50.942;3.644;2023-07-22T01:34:25;15.63;;;8.88;;
52948;SDS011;38812;50.942;3.644;2023-07-22T01:36:50;16.23;;;8.55;;
52948;SDS011;38812;50.942;3.644;2023-07-22T01:39:16;16.40;;;8.80;;
52948;SDS011;38812;50.942;3.644;2023-07-22T01:41:43;20.08;;;9.13;;
52948;SDS011;38812;50.942;3.644;2023-07-22T01:44:09;18.67;;;9.15;;
52948;SDS011;38812;50.942;3.644;2023-07-22T01:46:35;16.00;;;9.15;;
52948;SDS011;38812;50.942;3.644;2023-07-22T01:49:01;20.52;;;9.93;;
52948;SDS011;38812;50.942;3.644;2023-07-22T01:51:30;12.10;;;7.75;;
52948;SDS011;38812;50.942;3.644;2023-07-22T01:53:55;18.52;;;9.30;;
52948;SDS011;38812;50.942;3.644;2023-07-22T01:56:22;16.27;;;9.32;;
52948;SDS011;38812;50.942;3.644;2023-07-22T01:58:47;12.73;;;8.55;;
52948;SDS011;38812;50.942;3.644;2023-07-22T02:01:13;19.65;;;9.68;;
52948;SDS011;38812;50.942;3.644;2023-07-22T02:03:40;13.23;;;8.40;;
52948;SDS011;38812;50.942;3.644;2023-07-22T02:06:05;21.23;;;8.93;;
52948;SDS011;38812;50.942;3.644;2023-07-22T02:08:31;15.50;;;8.27;;
52948;SDS011;38812;50.942;3.644;2023-07-22T02:11:01;15.02;;;8.82;;
52948;SDS011;38812;50.942;3.644;2023-07-22T02:13:29;14.85;;;6.72;;
52948;SDS011;38812;50.942;3.644;2023-07-22T02:15:54;15.05;;;8.60;;
52948;SDS011;38812;50.942;3.644;2023-07-22T02:18:20;19.65;;;8.52;;
52948;SDS011;38812;50.942;3.644;2023-07-22T02:20:45;12.93;;;8.27;;
52948;SDS011;38812;50.942;3.644;2023-07-22T02:23:10;18.98;;;8.20;;
52948;SDS011;38812;50.942;3.644;2023-07-22T02:25:36;17.25;;;8.40;;
52948;SDS011;38812;50.942;3.644;2023-07-22T02:28:01;14.27;;;8.02;;
52948;SDS011;38812;50.942;3.644;2023-07-22T02:30:27;14.45;;;8.80;;
52948;SDS011;38812;50.942;3.644;2023-07-22T02:32:52;13.18;;;8.73;;
52948;SDS011;38812;50.942;3.644;2023-07-22T02:35:18;21.05;;;8.93;;
52948;SDS011;38812;50.942;3.644;2023-07-22T02:37:43;15.60;;;8.45;;
52948;SDS011;38812;50.942;3.644;2023-07-22T02:40:08;21.02;;;10.05;;
52948;SDS011;38812;50.942;3.644;2023-07-22T02:42:37;18.58;;;9.35;;
52948;SDS011;38812;50.942;3.644;2023-07-22T02:45:03;21.23;;;9.48;;
52948;SDS011;38812;50.942;3.644;2023-07-22T02:47:34;19.70;;;8.98;;
52948;SDS011;38812;50.942;3.644;2023-07-22T02:50:00;14.13;;;8.85;;
52948;SDS011;38812;50.942;3.644;2023-07-22T02:52:26;14.35;;;8.73;;
52948;SDS011;38812;50.942;3.644;2023-07-22T02:57:35;15.88;;;8.98;;
52948;SDS011;38812;50.942;3.644;2023-07-22T03:00:01;15.50;;;9.10;;
52948;SDS011;38812;50.942;3.644;2023-07-22T03:02:32;17.23;;;9.27;;
52948;SDS011;38812;50.942;3.644;2023-07-22T03:04:57;17.58;;;9.55;;
52948;SDS011;38812;50.942;3.644;2023-07-22T03:07:23;14.40;;;8.20;;
52948;SDS011;38812;50.942;3.644;2023-07-22T03:09:52;16.48;;;9.32;;
52948;SDS011;38812;50.942;3.644;2023-07-22T03:12:18;16.90;;;8.88;;
52948;SDS011;38812;50.942;3.644;2023-07-22T03:14:43;15.70;;;8.65;;
52948;SDS011;38812;50.942;3.644;2023-07-22T03:17:08;17.75;;;8.90;;
52948;SDS011;38812;50.942;3.644;2023-07-22T03:19:34;22.70;;;9.27;;
52948;SDS011;38812;50.942;3.644;2023-07-22T03:22:00;23.77;;;9.45;;
52948;SDS011;38812;50.942;3.644;2023-07-22T03:24:26;20.05;;;9.43;;
52948;SDS011;38812;50.942;3.644;2023-07-22T03:26:51;17.70;;;9.57;;
52948;SDS011;38812;50.942;3.644;2023-07-22T03:29:17;21.67;;;9.93;;
52948;SDS011;38812;50.942;3.644;2023-07-22T03:31:42;19.55;;;9.27;;
52948;SDS011;38812;50.942;3.644;2023-07-22T03:34:07;18.25;;;9.95;;
52948;SDS011;38812;50.942;3.644;2023-07-22T03:36:33;18.10;;;10.02;;
52948;SDS011;38812;50.942;3.644;2023-07-22T03:39:01;18.38;;;10.10;;
52948;SDS011;38812;50.942;3.644;2023-07-22T03:41:26;21.65;;;8.82;;
52948;SDS011;38812;50.942;3.644;2023-07-22T03:43:51;15.00;;;8.57;;
52948;SDS011;38812;50.942;3.644;2023-07-22T03:46:17;14.70;;;8.55;;
52948;SDS011;38812;50.942;3.644;2023-07-22T03:48:42;17.23;;;9.10;;
52948;SDS011;38812;50.942;3.644;2023-07-22T03:51:08;18.25;;;9.10;;
52948;SDS011;38812;50.942;3.644;2023-07-22T03:53:33;14.52;;;8.70;;
52948;SDS011;38812;50.942;3.644;2023-07-22T03:55:59;20.75;;;10.52;;
52948;SDS011;38812;50.942;3.644;2023-07-22T03:58:24;18.42;;;8.38;;
52948;SDS011;38812;50.942;3.644;2023-07-22T04:00:49;13.82;;;7.82;;
52948;SDS011;38812;50.942;3.644;2023-07-22T04:03:15;13.43;;;9.23;;
52948;SDS011;38812;50.942;3.644;2023-07-22T04:05:40;16.15;;;8.52;;
52948;SDS011;38812;50.942;3.644;2023-07-22T04:08:06;15.10;;;8.70;;
52948;SDS011;38812;50.942;3.644;2023-07-22T04:10:31;20.83;;;8.73;;
52948;SDS011;38812;50.942;3.644;2023-07-22T04:12:56;22.02;;;10.50;;
52948;SDS011;38812;50.942;3.644;2023-07-22T04:15:22;21.02;;;8.73;;
52948;SDS011;38812;50.942;3.644;2023-07-22T04:17:47;17.05;;;8.43;;
52948;SDS011;38812;50.942;3.644;2023-07-22T04:20:13;15.70;;;8.02;;
52948;SDS011;38812;50.942;3.644;2023-07-22T04:22:38;21.58;;;8.73;;
52948;SDS011;38812;50.942;3.644;2023-07-22T04:25:04;15.65;;;8.82;;
52948;SDS011;38812;50.942;3.644;2023-07-22T04:27:30;17.55;;;8.73;;
52948;SDS011;38812;50.942;3.644;2023-07-22T04:29:55;21.00;;;9.98;;
52948;SDS011;38812;50.942;3.644;2023-07-22T04:32:21;19.05;;;9.40;;
52948;SDS011;38812;50.942;3.644;2023-07-22T04:34:46;17.95;;;8.65;;
52948;SDS011;38812;50.942;3.644;2023-07-22T04:37:12;19.67;;;8.55;;
52948;SDS011;38812;50.942;3.644;2023-07-22T04:39:38;20.27;;;9.25;;
52948;SDS011;38812;50.942;3.644;2023-07-22T04:42:03;15.60;;;8.80;;
52948;SDS011;38812;50.942;3.644;2023-07-22T04:44:29;21.30;;;9.02;;
52948;SDS011;38812;50.942;3.644;2023-07-22T04:46:54;18.98;;;9.73;;
52948;SDS011;38812;50.942;3.644;2023-07-22T04:49:20;23.35;;;10.27;;
52948;SDS011;38812;50.942;3.644;2023-07-22T04:51:47;28.05;;;8.95;;
52948;SDS011;38812;50.942;3.644;2023-07-22T04:54:13;19.30;;;9.50;;
52948;SDS011;38812;50.942;3.644;2023-07-22T04:56:39;22.17;;;9.07;;
52948;SDS011;38812;50.942;3.644;2023-07-22T04:59:05;16.42;;;7.60;;
52948;SDS011;38812;50.942;3.644;2023-07-22T05:01:31;18.10;;;7.93;;
52948;SDS011;38812;50.942;3.644;2023-07-22T05:03:56;17.13;;;7.93;;
52948;SDS011;38812;50.942;3.644;2023-07-22T05:06:22;15.45;;;8.18;;
52948;SDS011;38812;50.942;3.644;2023-07-22T05:08:50;22.90;;;8.85;;
52948;SDS011;38812;50.942;3.644;2023-07-22T05:11:15;22.00;;;7.80;;
52948;SDS011;38812;50.942;3.644;2023-07-22T05:13:41;21.77;;;8.68;;
52948;SDS011;38812;50.942;3.644;2023-07-22T05:16:07;18.23;;;8.82;;
52948;SDS011;38812;50.942;3.644;2023-07-22T05:18:32;18.67;;;8.48;;
52948;SDS011;38812;50.942;3.644;2023-07-22T05:20:57;16.73;;;8.85;;
52948;SDS011;38812;50.942;3.644;2023-07-22T05:23:23;13.98;;;8.38;;
52948;SDS011;38812;50.942;3.644;2023-07-22T05:25:52;15.02;;;7.60;;
52948;SDS011;38812;50.942;3.644;2023-07-22T05:28:18;18.48;;;6.95;;
52948;SDS011;38812;50.942;3.644;2023-07-22T05:30:43;19.13;;;7.95;;
52948;SDS011;38812;50.942;3.644;2023-07-22T05:33:09;15.25;;;7.18;;
52948;SDS011;38812;50.942;3.644;2023-07-22T05:35:34;13.52;;;6.82;;
52948;SDS011;38812;50.942;3.644;2023-07-22T05:38:00;13.00;;;6.25;;
52948;SDS011;38812;50.942;3.644;2023-07-22T05:40:28;16.83;;;6.32;;
52948;SDS011;38812;50.942;3.644;2023-07-22T05:42:53;10.82;;;6.32;;
52948;SDS011;38812;50.942;3.644;2023-07-22T05:45:19;16.60;;;6.55;;
52948;SDS011;38812;50.942;3.644;2023-07-22T05:47:44;16.58;;;6.82;;
52948;SDS011;38812;50.942;3.644;2023-07-22T05:50:10;11.90;;;6.40;;
52948;SDS011;38812;50.942;3.644;2023-07-22T05:52:35;12.13;;;7.10;;
52948;SDS011;38812;50.942;3.644;2023-07-22T05:55:01;13.40;;;6.72;;
52948;SDS011;38812;50.942;3.644;2023-07-22T05:57:26;20.58;;;7.55;;
52948;SDS011;38812;50.942;3.644;2023-07-22T05:59:51;13.88;;;6.28;;
52948;SDS011;38812;50.942;3.644;2023-07-22T06:02:17;17.67;;;7.30;;
52948;SDS011;38812;50.942;3.644;2023-07-22T06:04:43;14.00;;;7.28;;
52948;SDS011;38812;50.942;3.644;2023-07-22T06:07:09;14.65;;;6.32;;
52948;SDS011;38812;50.942;3.644;2023-07-22T06:09:34;10.35;;;6.30;;
52948;SDS011;38812;50.942;3.644;2023-07-22T06:12:00;25.63;;;5.93;;
52948;SDS011;38812;50.942;3.644;2023-07-22T06:14:26;10.82;;;6.22;;
52948;SDS011;38812;50.942;3.644;2023-07-22T06:16:52;11.02;;;5.40;;
52948;SDS011;38812;50.942;3.644;2023-07-22T06:19:18;14.07;;;6.30;;
52948;SDS011;38812;50.942;3.644;2023-07-22T06:21:43;10.30;;;6.28;;
52948;SDS011;38812;50.942;3.644;2023-07-22T06:24:09;20.27;;;6.85;;
52948;SDS011;38812;50.942;3.644;2023-07-22T06:26:35;15.98;;;5.55;;
52948;SDS011;38812;50.942;3.644;2023-07-22T06:29:00;14.48;;;5.50;;
52948;SDS011;38812;50.942;3.644;2023-07-22T06:31:26;17.83;;;6.50;;
52948;SDS011;38812;50.942;3.644;2023-07-22T06:33:55;15.48;;;5.88;;
52948;SDS011;38812;50.942;3.644;2023-07-22T06:36:21;14.38;;;5.40;;
52948;SDS011;38812;50.942;3.644;2023-07-22T06:38:47;12.40;;;6.30;;
52948;SDS011;38812;50.942;3.644;2023-07-22T06:41:12;10.77;;;5.90;;
52948;SDS011;38812;50.942;3.644;2023-07-22T06:43:38;14.88;;;5.78;;
52948;SDS011;38812;50.942;3.644;2023-07-22T06:46:03;11.98;;;5.55;;
52948;SDS011;38812;50.942;3.644;2023-07-22T06:48:28;16.35;;;6.28;;
52948;SDS011;38812;50.942;3.644;2023-07-22T06:50:54;12.20;;;5.30;;
52948;SDS011;38812;50.942;3.644;2023-07-22T06:53:19;10.00;;;5.47;;
52948;SDS011;38812;50.942;3.644;2023-07-22T06:55:51;17.73;;;5.85;;
52948;SDS011;38812;50.942;3.644;2023-07-22T06:58:19;17.83;;;6.63;;
52948;SDS011;38812;50.942;3.644;2023-07-22T07:00:44;13.30;;;5.97;;
52948;SDS011;38812;50.942;3.644;2023-07-22T07:03:10;17.15;;;6.13;;
52948;SDS011;38812;50.942;3.644;2023-07-22T07:05:35;21.33;;;7.18;;
52948;SDS011;38812;50.942;3.644;2023-07-22T07:08:01;17.15;;;6.07;;
52948;SDS011;38812;50.942;3.644;2023-07-22T07:10:26;12.63;;;6.45;;
52948;SDS011;38812;50.942;3.644;2023-07-22T07:12:52;14.50;;;6.05;;
52948;SDS011;38812;50.942;3.644;2023-07-22T07:15:17;12.95;;;6.72;;
52948;SDS011;38812;50.942;3.644;2023-07-22T07:17:43;12.27;;;5.93;;
52948;SDS011;38812;50.942;3.644;2023-07-22T07:20:09;9.80;;;5.30;;
52948;SDS011;38812;50.942;3.644;2023-07-22T07:22:34;19.75;;;6.43;;
52948;SDS011;38812;50.942;3.644;2023-07-22T07:25:00;15.82;;;6.88;;
52948;SDS011;38812;50.942;3.644;2023-07-22T07:27:25;11.45;;;5.57;;
52948;SDS011;38812;50.942;3.644;2023-07-22T07:29:52;13.18;;;6.03;;
52948;SDS011;38812;50.942;3.644;2023-07-22T07:32:17;9.90;;;5.35;;
52948;SDS011;38812;50.942;3.644;2023-07-22T07:34:43;10.55;;;5.47;;
52948;SDS011;38812;50.942;3.644;2023-07-22T07:37:08;10.15;;;5.32;;
52948;SDS011;38812;50.942;3.644;2023-07-22T07:39:33;15.07;;;5.18;;
52948;SDS011;38812;50.942;3.644;2023-07-22T07:41:59;17.92;;;5.57;;
52948;SDS011;38812;50.942;3.644;2023-07-22T07:44:24;11.13;;;4.53;;
52948;SDS011;38812;50.942;3.644;2023-07-22T07:46:50;12.95;;;4.90;;
52948;SDS011;38812;50.942;3.644;2023-07-22T07:49:15;14.93;;;4.82;;
52948;SDS011;38812;50.942;3.644;2023-07-22T07:51:40;14.13;;;5.40;;
52948;SDS011;38812;50.942;3.644;2023-07-22T07:54:07;10.27;;;4.15;;
52948;SDS011;38812;50.942;3.644;2023-07-22T07:56:33;16.13;;;5.35;;
52948;SDS011;38812;50.942;3.644;2023-07-22T07:58:58;9.32;;;4.88;;
52948;SDS011;38812;50.942;3.644;2023-07-22T08:01:24;14.18;;;4.38;;
52948;SDS011;38812;50.942;3.644;2023-07-22T08:03:49;12.63;;;5.25;;
52948;SDS011;38812;50.942;3.644;2023-07-22T08:06:15;10.93;;;4.75;;
52948;SDS011;38812;50.942;3.644;2023-07-22T08:08:40;10.38;;;4.60;;
52948;SDS011;38812;50.942;3.644;2023-07-22T08:13:35;11.30;;;4.60;;
52948;SDS011;38812;50.942;3.644;2023-07-22T08:16:02;9.00;;;3.95;;
52948;SDS011;38812;50.942;3.644;2023-07-22T08:18:29;7.35;;;3.67;;
52948;SDS011;38812;50.942;3.644;2023-07-22T08:20:56;11.02;;;4.13;;
52948;SDS011;38812;50.942;3.644;2023-07-22T08:23:22;14.60;;;4.85;;
52948;SDS011;38812;50.942;3.644;2023-07-22T08:25:48;7.68;;;3.88;;
52948;SDS011;38812;50.942;3.644;2023-07-22T08:28:14;11.75;;;3.72;;
52948;SDS011;38812;50.942;3.644;2023-07-22T08:30:40;6.50;;;3.50;;
52948;SDS011;38812;50.942;3.644;2023-07-22T08:33:06;11.85;;;4.72;;
52948;SDS011;38812;50.942;3.644;2023-07-22T08:35:33;8.55;;;3.28;;
52948;SDS011;38812;50.942;3.644;2023-07-22T08:38:02;11.55;;;4.40;;
52948;SDS011;38812;50.942;3.644;2023-07-22T08:40:38;7.70;;;3.17;;
52948;SDS011;38812;50.942;3.644;2023-07-22T08:43:06;5.80;;;3.03;;
52948;SDS011;38812;50.942;3.644;2023-07-22T08:45:34;6.85;;;3.45;;
52948;SDS011;38812;50.942;3.644;2023-07-22T08:48:08;7.63;;;3.40;;
52948;SDS011;38812;50.942;3.644;2023-07-22T08:50:52;7.05;;;2.85;;
52948;SDS011;38812;50.942;3.644;2023-07-22T08:53:20;10.32;;;4.35;;
52948;SDS011;38812;50.942;3.644;2023-07-22T08:55:45;6.70;;;2.47;;
52948;SDS011;38812;50.942;3.644;2023-07-22T08:58:13;10.00;;;2.85;;
52948;SDS011;38812;50.942;3.644;2023-07-22T09:00:39;8.15;;;3.00;;
52948;SDS011;38812;50.942;3.644;2023-07-22T09:03:05;7.18;;;2.38;;
52948;SDS011;38812;50.942;3.644;2023-07-22T09:05:31;8.77;;;2.28;;
52948;SDS011;38812;50.942;3.644;2023-07-22T09:07:58;7.07;;;2.25;;
52948;SDS011;38812;50.942;3.644;2023-07-22T09:10:24;6.05;;;2.33;;
52948;SDS011;38812;50.942;3.644;2023-07-22T09:12:52;6.70;;;2.70;;
52948;SDS011;38812;50.942;3.644;2023-07-22T09:15:18;6.70;;;2.05;;
52948;SDS011;38812;50.942;3.644;2023-07-22T09:17:45;4.25;;;2.13;;
52948;SDS011;38812;50.942;3.644;2023-07-22T09:20:11;8.27;;;2.13;;
52948;SDS011;38812;50.942;3.644;2023-07-22T09:22:42;7.18;;;2.35;;
52948;SDS011;38812;50.942;3.644;2023-07-22T09:25:11;5.72;;;2.30;;
52948;SDS011;38812;50.942;3.644;2023-07-22T09:27:38;5.07;;;1.75;;
52948;SDS011;38812;50.942;3.644;2023-07-22T09:30:04;2.58;;;1.65;;
52948;SDS011;38812;50.942;3.644;2023-07-22T09:32:45;4.07;;;1.50;;
52948;SDS011;38812;50.942;3.644;2023-07-22T09:35:11;5.82;;;1.70;;
52948;SDS011;38812;50.942;3.644;2023-07-22T09:37:36;6.13;;;1.50;;
52948;SDS011;38812;50.942;3.644;2023-07-22T09:40:13;4.55;;;2.05;;
52948;SDS011;38812;50.942;3.644;2023-07-22T09:42:49;3.38;;;1.50;;
52948;SDS011;38812;50.942;3.644;2023-07-22T09:45:16;3.45;;;1.60;;
52948;SDS011;38812;50.942;3.644;2023-07-22T09:47:46;6.25;;;1.40;;
52948;SDS011;38812;50.942;3.644;2023-07-22T09:50:17;5.80;;;1.63;;
52948;SDS011;38812;50.942;3.644;2023-07-22T09:52:46;1.50;;;1.40;;
52948;SDS011;38812;50.942;3.644;2023-07-22T09:55:14;3.45;;;1.10;;
52948;SDS011;38812;50.942;3.644;2023-07-22T09:57:44;3.60;;;1.20;;
52948;SDS011;38812;50.942;3.644;2023-07-22T10:00:15;2.97;;;1.45;;
52948;SDS011;38812;50.942;3.644;2023-07-22T10:02:42;4.50;;;1.48;;
52948;SDS011;38812;50.942;3.644;2023-07-22T10:05:12;2.03;;;1.17;;
52948;SDS011;38812;50.942;3.644;2023-07-22T10:07:42;3.93;;;1.67;;
52948;SDS011;38812;50.942;3.644;2023-07-22T10:10:13;4.70;;;1.27;;
52948;SDS011;38812;50.942;3.644;2023-07-22T10:12:41;3.58;;;1.33;;
52948;SDS011;38812;50.942;3.644;2023-07-22T10:15:09;3.83;;;1.42;;
52948;SDS011;38812;50.942;3.644;2023-07-22T10:17:42;2.75;;;1.35;;
52948;SDS011;38812;50.942;3.644;2023-07-22T10:20:08;5.68;;;1.25;;
52948;SDS011;38812;50.942;3.644;2023-07-22T10:22:41;6.15;;;1.60;;
52948;SDS011;38812;50.942;3.644;2023-07-22T10:25:09;6.40;;;1.55;;
52948;SDS011;38812;50.942;3.644;2023-07-22T10:27:36;2.03;;;0.95;;
52948;SDS011;38812;50.942;3.644;2023-07-22T10:30:05;5.65;;;1.38;;
52948;SDS011;38812;50.942;3.644;2023-07-22T10:32:40;3.95;;;1.10;;
52948;SDS011;38812;50.942;3.644;2023-07-22T10:35:07;2.75;;;1.23;;
52948;SDS011;38812;50.942;3.644;2023-07-22T10:37:44;2.10;;;1.67;;
52948;SDS011;38812;50.942;3.644;2023-07-22T10:42:51;5.82;;;1.20;;
52948;SDS011;38812;50.942;3.644;2023-07-22T10:45:25;1.98;;;1.20;;
52948;SDS011;38812;50.942;3.644;2023-07-22T10:48:08;2.03;;;1.30;;
52948;SDS011;38812;50.942;3.644;2023-07-22T10:50:38;6.90;;;1.20;;
52948;SDS011;38812;50.942;3.644;2023-07-22T10:53:03;1.27;;;0.93;;
52948;SDS011;38812;50.942;3.644;2023-07-22T10:55:29;2.60;;;1.25;;
52948;SDS011;38812;50.942;3.644;2023-07-22T10:57:54;6.10;;;1.55;;
52948;SDS011;38812;50.942;3.644;2023-07-22T11:00:21;3.67;;;1.05;;
52948;SDS011;38812;50.942;3.644;2023-07-22T11:03:32;2.72;;;1.50;;
52948;SDS011;38812;50.942;3.644;2023-07-22T11:05:53;2.33;;;1.35;;
52948;SDS011;38812;50.942;3.644;2023-07-22T11:08:39;2.78;;;1.80;;
52948;SDS011;38812;50.942;3.644;2023-07-22T11:11:05;1.85;;;1.20;;
52948;SDS011;38812;50.942;3.644;2023-07-22T11:13:34;1.88;;;1.10;;
52948;SDS011;38812;50.942;3.644;2023-07-22T11:16:03;3.80;;;1.48;;
52948;SDS011;38812;50.942;3.644;2023-07-22T11:18:36;5.75;;;1.45;;
52948;SDS011;38812;50.942;3.644;2023-07-22T11:21:02;6.53;;;1.55;;
52948;SDS011;38812;50.942;3.644;2023-07-22T11:23:33;3.47;;;1.30;;
52948;SDS011;38812;50.942;3.644;2023-07-22T11:25:59;2.65;;;1.25;;
52948;SDS011;38812;50.942;3.644;2023-07-22T11:28:26;8.00;;;1.30;;
52948;SDS011;38812;50.942;3.644;2023-07-22T11:30:52;1.58;;;1.23;;
52948;SDS011;38812;50.942;3.644;2023-07-22T11:33:18;1.83;;;1.15;;
52948;SDS011;38812;50.942;3.644;2023-07-22T11:35:44;5.88;;;1.30;;
52948;SDS011;38812;50.942;3.644;2023-07-22T11:38:11;6.80;;;1.48;;
52948;SDS011;38812;50.942;3.644;2023-07-22T11:40:37;3.42;;;1.58;;
52948;SDS011;38812;50.942;3.644;2023-07-22T11:43:03;3.83;;;1.40;;
52948;SDS011;38812;50.942;3.644;2023-07-22T11:45:28;2.58;;;1.45;;
52948;SDS011;38812;50.942;3.644;2023-07-22T11:47:54;3.65;;;1.23;;
52948;SDS011;38812;50.942;3.644;2023-07-22T11:50:24;2.75;;;1.38;;
52948;SDS011;38812;50.942;3.644;2023-07-22T11:52:57;7.63;;;1.80;;
52948;SDS011;38812;50.942;3.644;2023-07-22T11:55:23;2.72;;;1.08;;
52948;SDS011;38812;50.942;3.644;2023-07-22T11:57:52;4.68;;;1.50;;
52948;SDS011;38812;50.942;3.644;2023-07-22T12:00:20;1.67;;;1.25;;
52948;SDS011;38812;50.942;3.644;2023-07-22T12:02:46;3.67;;;1.40;;
52948;SDS011;38812;50.942;3.644;2023-07-22T12:05:12;3.70;;;1.48;;
52948;SDS011;38812;50.942;3.644;2023-07-22T12:07:45;2.15;;;1.40;;
52948;SDS011;38812;50.942;3.644;2023-07-22T12:10:11;6.78;;;1.35;;
52948;SDS011;38812;50.942;3.644;2023-07-22T12:12:40;5.30;;;1.20;;
52948;SDS011;38812;50.942;3.644;2023-07-22T12:20:11;3.47;;;1.33;;
52948;SDS011;38812;50.942;3.644;2023-07-22T12:22:37;3.33;;;1.30;;
52948;SDS011;38812;50.942;3.644;2023-07-22T12:25:02;5.68;;;1.88;;
52948;SDS011;38812;50.942;3.644;2023-07-22T12:27:28;3.05;;;1.45;;
52948;SDS011;38812;50.942;3.644;2023-07-22T12:29:54;4.97;;;1.40;;
52948;SDS011;38812;50.942;3.644;2023-07-22T12:32:19;3.58;;;1.58;;
52948;SDS011;38812;50.942;3.644;2023-07-22T12:34:44;1.60;;;1.13;;
52948;SDS011;38812;50.942;3.644;2023-07-22T12:37:10;2.45;;;1.20;;
52948;SDS011;38812;50.942;3.644;2023-07-22T12:39:35;3.83;;;1.42;;
52948;SDS011;38812;50.942;3.644;2023-07-22T12:42:02;3.78;;;1.48;;
52948;SDS011;38812;50.942;3.644;2023-07-22T12:44:28;6.70;;;1.70;;
52948;SDS011;38812;50.942;3.644;2023-07-22T12:46:53;4.85;;;1.17;;
52948;SDS011;38812;50.942;3.644;2023-07-22T12:49:19;5.53;;;1.58;;
52948;SDS011;38812;50.942;3.644;2023-07-22T12:51:44;6.05;;;1.75;;
52948;SDS011;38812;50.942;3.644;2023-07-22T12:54:09;5.63;;;1.85;;
52948;SDS011;38812;50.942;3.644;2023-07-22T12:56:35;5.43;;;1.75;;
52948;SDS011;38812;50.942;3.644;2023-07-22T12:59:01;4.75;;;1.60;;
52948;SDS011;38812;50.942;3.644;2023-07-22T13:01:26;4.32;;;1.33;;
52948;SDS011;38812;50.942;3.644;2023-07-22T13:03:51;4.72;;;1.52;;
52948;SDS011;38812;50.942;3.644;2023-07-22T13:06:17;6.47;;;1.63;;
52948;SDS011;38812;50.942;3.644;2023-07-22T13:08:42;7.43;;;1.77;;
52948;SDS011;38812;50.942;3.644;2023-07-22T13:11:07;3.13;;;1.30;;
52948;SDS011;38812;50.942;3.644;2023-07-22T13:13:33;9.35;;;1.52;;
52948;SDS011;38812;50.942;3.644;2023-07-22T13:15:58;2.78;;;1.08;;
52948;SDS011;38812;50.942;3.644;2023-07-22T13:18:24;5.70;;;1.40;;
52948;SDS011;38812;50.942;3.644;2023-07-22T13:20:49;6.85;;;2.20;;
52948;SDS011;38812;50.942;3.644;2023-07-22T13:23:14;4.60;;;1.42;;
52948;SDS011;38812;50.942;3.644;2023-07-22T13:25:40;3.60;;;1.05;;
52948;SDS011;38812;50.942;3.644;2023-07-22T13:28:05;4.38;;;1.70;;
52948;SDS011;38812;50.942;3.644;2023-07-22T13:30:31;3.65;;;1.45;;
52948;SDS011;38812;50.942;3.644;2023-07-22T13:32:56;4.45;;;1.38;;
52948;SDS011;38812;50.942;3.644;2023-07-22T13:35:22;3.90;;;1.33;;
52948;SDS011;38812;50.942;3.644;2023-07-22T13:37:47;5.00;;;1.27;;
52948;SDS011;38812;50.942;3.644;2023-07-22T13:40:13;3.50;;;1.23;;
52948;SDS011;38812;50.942;3.644;2023-07-22T13:42:38;4.43;;;1.52;;
52948;SDS011;38812;50.942;3.644;2023-07-22T13:45:04;5.95;;;1.60;;
52948;SDS011;38812;50.942;3.644;2023-07-22T13:47:30;4.80;;;1.35;;
52948;SDS011;38812;50.942;3.644;2023-07-22T13:49:56;4.28;;;1.65;;
52948;SDS011;38812;50.942;3.644;2023-07-22T13:52:21;3.75;;;1.48;;
52948;SDS011;38812;50.942;3.644;2023-07-22T13:54:47;2.53;;;1.25;;
52948;SDS011;38812;50.942;3.644;2023-07-22T13:57:12;2.28;;;1.50;;
52948;SDS011;38812;50.942;3.644;2023-07-22T13:59:37;3.53;;;1.67;;
52948;SDS011;38812;50.942;3.644;2023-07-22T14:02:03;7.40;;;1.75;;
52948;SDS011;38812;50.942;3.644;2023-07-22T14:04:28;4.05;;;1.70;;
52948;SDS011;38812;50.942;3.644;2023-07-22T14:06:54;6.03;;;1.60;;
52948;SDS011;38812;50.942;3.644;2023-07-22T14:09:19;5.93;;;1.92;;
52948;SDS011;38812;50.942;3.644;2023-07-22T14:11:45;4.03;;;1.90;;
52948;SDS011;38812;50.942;3.644;2023-07-22T14:14:10;4.30;;;1.70;;
52948;SDS011;38812;50.942;3.644;2023-07-22T14:16:35;3.53;;;1.95;;
52948;SDS011;38812;50.942;3.644;2023-07-22T14:19:01;5.65;;;2.15;;
52948;SDS011;38812;50.942;3.644;2023-07-22T14:21:26;3.03;;;1.90;;
52948;SDS011;38812;50.942;3.644;2023-07-22T14:23:52;8.55;;;2.03;;
52948;SDS011;38812;50.942;3.644;2023-07-22T14:26:17;4.13;;;1.98;;
52948;SDS011;38812;50.942;3.644;2023-07-22T14:28:43;3.88;;;1.77;;
52948;SDS011;38812;50.942;3.644;2023-07-22T14:31:09;4.80;;;1.80;;
52948;SDS011;38812;50.942;3.644;2023-07-22T14:33:34;3.83;;;1.58;;
52948;SDS011;38812;50.942;3.644;2023-07-22T14:35:59;5.50;;;1.90;;
52948;SDS011;38812;50.942;3.644;2023-07-22T14:38:25;5.10;;;2.05;;
52948;SDS011;38812;50.942;3.644;2023-07-22T14:40:51;3.05;;;1.70;;
52948;SDS011;38812;50.942;3.644;2023-07-22T14:43:16;5.45;;;1.88;;
52948;SDS011;38812;50.942;3.644;2023-07-22T14:45:41;6.97;;;2.33;;
52948;SDS011;38812;50.942;3.644;2023-07-22T14:48:07;4.00;;;1.85;;
52948;SDS011;38812;50.942;3.644;2023-07-22T14:50:32;4.55;;;1.92;;